Iver Bright — ZDKU4 — position and weather

sailwx.info

Track history (hours):
 
Tides and Currents Weather Stations Pressure Air Temp Water Temp Dewpoint Dewpoint Depression Visibility Wind Speed Wind Dir Waves Ship Positions

Iver Bright

Last reported at 2016-May-30 18:30 UTC. Time now 2016-May-31 20:00 UTC.
Position N 37°11' E 015°17'.

Length 111 m; draft 5.3 m.

Type: Tanker. MMSI: 236111811.

Date/timePositionNaut miles runAvg speedWind from/ knotsBaromVisibWave heightAir tempDewpointWater temp
2016-May-30 18:30N 37°11' E 015°17'2010.4
2016-May-30 16:33N 36°53' E 015°28'1211.8
2016-May-30 15:33N 36°42' E 015°24'1312.2
2016-May-30 14:27N 36°32' E 015°13'1112.7
2016-May-30 13:33N 36°27' E 015°00'1312.9
2016-May-30 12:33N 36°26' E 014°44'1313.0
2016-May-30 11:33N 36°27' E 014°28'1313.3
2016-May-30 10:33N 36°32' E 014°13'1313.1
2016-May-30 09:33N 36°36' E 013°57'1313.2
2016-May-30 08:33N 36°40' E 013°42'1313.2
2016-May-30 07:33N 36°44' E 013°26'1313.0
2016-May-30 06:33N 36°48' E 013°11'1312.9
2016-May-30 05:33N 36°52' E 012°55'1313.1
2016-May-30 04:33N 36°57' E 012°40'1313.3
2016-May-30 03:33N 37°00' E 012°24'1313.3
2016-May-30 02:33N 37°05' E 012°08'1313.3
2016-May-30 01:32N 37°09' E 011°52'1313.1
2016-May-30 00:33N 37°13' E 011°37'7712.9
2016-May-29 18:33N 37°34' E 010°03'115 3.3
2016-May-28 07:33N 36°54' E 007°47'3510.8
2016-May-28 04:17N 37°08' E 008°28'8011.1
2016-May-27 21:06N 37°39' E 010°00'6311.4
2016-May-27 15:33N 37°24' E 011°18'1211.9
2016-May-27 14:33N 37°21' E 011°32'1211.9
2016-May-27 13:32N 37°17' E 011°47'3711.9
2016-May-27 10:28N 37°08' E 012°31'1211.8
2016-May-27 09:26N 37°03' E 012°45'1011.7
2016-May-27 08:33N 36°59' E 012°57'1211.7
2016-May-27 07:33N 36°54' E 013°11'1212.0
2016-May-27 06:33N 36°50' E 013°25'1211.7
2016-May-27 05:33N 36°45' E 013°38'1111.5
2016-May-27 04:33N 36°41' E 013°51'1211.7
2016-May-27 03:33N 36°36' E 014°05'1211.9
2016-May-27 02:33N 36°31' E 014°18'1211.7
2016-May-27 01:33N 36°27' E 014°32'1211.6
2016-May-27 00:33N 36°27' E 014°46'1211.5
2016-May-26 23:33N 36°29' E 015°00'1211.9
2016-May-26 22:32N 36°34' E 015°14'1211.7
2016-May-26 21:33N 36°45' E 015°20'1312.8
2016-May-26 20:33N 36°56' E 015°26'1211.9
2016-May-26 19:33N 37°07' E 015°20'58 1.2
2016-May-24 18:32N 36°12' E 015°00'1212.1
2016-May-24 17:34N 36°02' E 014°52'1211.5
2016-May-24 16:34N 35°52' E 014°46'0 0.2
2016-May-24 15:32N 35°52' E 014°45'0 0.0
2016-May-24 14:32N 35°52' E 014°45'0 0.0
2016-May-24 13:32N 35°52' E 014°45'0 0.0
2016-May-24 12:32N 35°52' E 014°45'0 0.0
2016-May-24 11:32N 35°52' E 014°45'0 0.0
2016-May-24 10:32N 35°52' E 014°45'0 0.0
2016-May-24 09:32N 35°52' E 014°45'0 0.0
2016-May-24 08:32N 35°52' E 014°45'0 0.0
2016-May-24 07:32N 35°52' E 014°45'3 3.5
2016-May-24 06:34N 35°51' E 014°49'1211.6
2016-May-24 05:34N 35°47' E 015°03'1211.9
2016-May-24 04:33N 35°43' E 015°17'1211.8
2016-May-24 03:33N 35°39' E 015°30'6311.8
2016-May-23 22:12N 35°17' E 016°43'811.9
2016-May-23 21:33N 35°14' E 016°52'1312.1
2016-May-23 20:28N 35°10' E 017°07'1112.3
2016-May-23 19:34N 35°06' E 017°19'8812.3
2016-May-23 12:23N 34°35' E 018°60'50111.6
2016-May-21 17:04N 31°40' E 028°21'713.2
2016-May-21 16:33N 31°37' E 028°28'3012.9
2016-May-21 14:13N 31°27' E 029°01'912.9
2016-May-21 13:33N 31°24' E 029°11'  
Track history (hours):
 
Tides and Currents Weather Stations Pressure Air Temp Water Temp Dewpoint Dewpoint Depression Visibility Wind Speed Wind Dir Waves Ship Positions

Iver Bright

Last reported at 2016-May-30 18:30 UTC. Time now 2016-May-31 20:00 UTC.
Position N 37°11' E 015°17'.

Length 111 m; draft 5.3 m.

Type: Tanker. MMSI: 236111811.

Date/timePositionNaut miles runAvg speedWind from/ knotsBaromVisibWave heightAir tempDewpointWater temp
2016-May-30 18:30N 37°11' E 015°17'2010.4
2016-May-30 16:33N 36°53' E 015°28'1211.8
2016-May-30 15:33N 36°42' E 015°24'1312.2
2016-May-30 14:27N 36°32' E 015°13'1112.7
2016-May-30 13:33N 36°27' E 015°00'1312.9
2016-May-30 12:33N 36°26' E 014°44'1313.0
2016-May-30 11:33N 36°27' E 014°28'1313.3
2016-May-30 10:33N 36°32' E 014°13'1313.1
2016-May-30 09:33N 36°36' E 013°57'1313.2
2016-May-30 08:33N 36°40' E 013°42'1313.2
2016-May-30 07:33N 36°44' E 013°26'1313.0
2016-May-30 06:33N 36°48' E 013°11'1312.9
2016-May-30 05:33N 36°52' E 012°55'1313.1
2016-May-30 04:33N 36°57' E 012°40'1313.3
2016-May-30 03:33N 37°00' E 012°24'1313.3
2016-May-30 02:33N 37°05' E 012°08'1313.3
2016-May-30 01:32N 37°09' E 011°52'1313.1
2016-May-30 00:33N 37°13' E 011°37'7712.9
2016-May-29 18:33N 37°34' E 010°03'115 3.3
2016-May-28 07:33N 36°54' E 007°47'3510.8
2016-May-28 04:17N 37°08' E 008°28'8011.1
2016-May-27 21:06N 37°39' E 010°00'6311.4
2016-May-27 15:33N 37°24' E 011°18'1211.9
2016-May-27 14:33N 37°21' E 011°32'1211.9
2016-May-27 13:32N 37°17' E 011°47'3711.9
2016-May-27 10:28N 37°08' E 012°31'1211.8
2016-May-27 09:26N 37°03' E 012°45'1011.7
2016-May-27 08:33N 36°59' E 012°57'1211.7
2016-May-27 07:33N 36°54' E 013°11'1212.0
2016-May-27 06:33N 36°50' E 013°25'1211.7
2016-May-27 05:33N 36°45' E 013°38'1111.5
2016-May-27 04:33N 36°41' E 013°51'1211.7
2016-May-27 03:33N 36°36' E 014°05'1211.9
2016-May-27 02:33N 36°31' E 014°18'1211.7
2016-May-27 01:33N 36°27' E 014°32'1211.6
2016-May-27 00:33N 36°27' E 014°46'1211.5
2016-May-26 23:33N 36°29' E 015°00'1211.9
2016-May-26 22:32N 36°34' E 015°14'1211.7
2016-May-26 21:33N 36°45' E 015°20'1312.8
2016-May-26 20:33N 36°56' E 015°26'1211.9
2016-May-26 19:33N 37°07' E 015°20'58 1.2
2016-May-24 18:32N 36°12' E 015°00'1212.1
2016-May-24 17:34N 36°02' E 014°52'1211.5
2016-May-24 16:34N 35°52' E 014°46'0 0.2
2016-May-24 15:32N 35°52' E 014°45'0 0.0
2016-May-24 14:32N 35°52' E 014°45'0 0.0
2016-May-24 13:32N 35°52' E 014°45'0 0.0
2016-May-24 12:32N 35°52' E 014°45'0 0.0
2016-May-24 11:32N 35°52' E 014°45'0 0.0
2016-May-24 10:32N 35°52' E 014°45'0 0.0
2016-May-24 09:32N 35°52' E 014°45'0 0.0
2016-May-24 08:32N 35°52' E 014°45'0 0.0
2016-May-24 07:32N 35°52' E 014°45'3 3.5
2016-May-24 06:34N 35°51' E 014°49'1211.6
2016-May-24 05:34N 35°47' E 015°03'1211.9
2016-May-24 04:33N 35°43' E 015°17'1211.8
2016-May-24 03:33N 35°39' E 015°30'6311.8
2016-May-23 22:12N 35°17' E 016°43'811.9
2016-May-23 21:33N 35°14' E 016°52'1312.1
2016-May-23 20:28N 35°10' E 017°07'1112.3
2016-May-23 19:34N 35°06' E 017°19'8812.3
2016-May-23 12:23N 34°35' E 018°60'50111.6
2016-May-21 17:04N 31°40' E 028°21'713.2
2016-May-21 16:33N 31°37' E 028°28'3012.9
2016-May-21 14:13N 31°27' E 029°01'912.9
2016-May-21 13:33N 31°24' E 029°11'  

Dump ship's entire track history